createdAt,value
2022-10-16T00:00:09.489Z,6.70
2022-10-16T00:02:35.620Z,7.70
2022-10-16T00:04:41.678Z,7.80
2022-10-16T00:06:47.695Z,6.40
2022-10-16T00:08:54.404Z,7.20
2022-10-16T00:11:06.998Z,6.90
2022-10-16T00:13:13.159Z,7.70
2022-10-16T00:15:19.806Z,7.20
2022-10-16T00:17:25.891Z,6.70
2022-10-16T00:19:32.427Z,7.00
2022-10-16T00:21:39.153Z,6.50
2022-10-16T00:23:46.433Z,6.50
2022-10-16T00:26:01.704Z,6.20
2022-10-16T00:28:07.969Z,7.10
2022-10-16T00:30:14.400Z,6.80
2022-10-16T00:32:24.017Z,6.80
2022-10-16T00:34:30.525Z,7.10
2022-10-16T00:36:36.720Z,6.40
2022-10-16T00:38:44.256Z,6.30
2022-10-16T00:40:50.540Z,5.70
2022-10-16T00:42:56.676Z,5.70
2022-10-16T00:45:03.242Z,6.20
2022-10-16T00:47:15.706Z,6.40
2022-10-16T00:49:23.221Z,6.50
2022-10-16T00:51:41.428Z,6.50
2022-10-16T00:53:48.993Z,6.60
2022-10-16T00:55:55.431Z,5.70
2022-10-16T00:58:03.037Z,6.70
2022-10-16T01:00:12.244Z,6.60
2022-10-16T01:02:19.411Z,6.40
2022-10-16T01:04:28.692Z,6.30
2022-10-16T01:07:13.143Z,6.40
2022-10-16T01:09:24.331Z,6.40
2022-10-16T01:11:30.862Z,6.10
2022-10-16T01:13:45.039Z,6.50
2022-10-16T01:15:54.426Z,6.50
2022-10-16T01:18:06.055Z,6.10
2022-10-16T01:20:36.527Z,6.50
2022-10-16T01:23:15.241Z,6.10
2022-10-16T01:25:42.225Z,6.50
2022-10-16T01:27:50.648Z,6.70
2022-10-16T01:30:04.367Z,6.00
2022-10-16T01:32:31.511Z,6.70
2022-10-16T01:34:50.041Z,6.30
2022-10-16T01:37:07.199Z,6.60
2022-10-16T01:39:15.643Z,6.90
2022-10-16T01:41:28.222Z,6.80
2022-10-16T01:43:45.314Z,6.20
2022-10-16T01:45:52.085Z,6.50
2022-10-16T01:48:00.163Z,6.50
2022-10-16T01:50:08.110Z,6.40
2022-10-16T01:52:23.474Z,7.60
2022-10-16T01:54:33.288Z,6.90
2022-10-16T01:56:41.750Z,6.90
2022-10-16T01:58:53.095Z,6.80
2022-10-16T02:03:06.735Z,6.40
2022-10-16T02:05:25.582Z,6.70
2022-10-16T02:07:31.950Z,7.10
2022-10-16T02:09:38.734Z,6.50
2022-10-16T02:11:45.618Z,6.60
2022-10-16T02:13:58.070Z,6.80
2022-10-16T02:16:04.735Z,6.30
2022-10-16T02:18:12.703Z,6.20
2022-10-16T02:20:19.348Z,6.50
2022-10-16T02:22:32.392Z,6.10
2022-10-16T02:24:45.806Z,5.60
2022-10-16T02:27:06.240Z,7.00
2022-10-16T02:29:17.140Z,6.10
2022-10-16T02:31:31.109Z,5.70
2022-10-16T02:33:40.444Z,6.40
2022-10-16T02:35:49.080Z,5.60
2022-10-16T02:37:56.735Z,6.40
2022-10-16T02:40:04.690Z,6.40
2022-10-16T02:42:17.486Z,6.40
2022-10-16T02:44:23.439Z,7.20
2022-10-16T02:46:29.908Z,6.80
2022-10-16T02:48:37.074Z,6.30
2022-10-16T02:50:43.561Z,6.10
2022-10-16T02:52:49.835Z,5.60
2022-10-16T02:54:55.962Z,7.20
2022-10-16T02:57:03.463Z,7.00
2022-10-16T02:59:09.696Z,6.20
2022-10-16T03:01:18.794Z,6.60
2022-10-16T03:03:25.272Z,6.60
2022-10-16T03:05:32.337Z,6.90
2022-10-16T03:07:38.852Z,6.80
2022-10-16T03:09:45.530Z,6.80
2022-10-16T03:11:52.274Z,5.50
2022-10-16T03:13:58.840Z,6.70
2022-10-16T03:16:05.440Z,6.50
2022-10-16T03:18:11.753Z,6.70
2022-10-16T03:20:18.633Z,6.20
2022-10-16T03:22:24.785Z,6.20
2022-10-16T03:24:31.605Z,6.80
2022-10-16T03:26:38.950Z,6.60
2022-10-16T03:28:46.172Z,6.20
2022-10-16T03:30:52.870Z,7.00
2022-10-16T03:32:59.313Z,6.90
2022-10-16T03:35:06.276Z,6.30
2022-10-16T03:37:13.349Z,6.90
2022-10-16T03:39:20.211Z,6.10
2022-10-16T03:41:26.732Z,6.20
2022-10-16T03:43:33.202Z,6.30
2022-10-16T03:45:40.026Z,6.40
2022-10-16T03:47:46.806Z,6.50
2022-10-16T03:49:53.328Z,7.00
2022-10-16T03:51:59.416Z,6.20
2022-10-16T03:54:05.882Z,6.10
2022-10-16T03:56:12.060Z,5.80
2022-10-16T03:58:19.288Z,7.10
2022-10-16T04:00:26.667Z,6.50
2022-10-16T04:02:33.298Z,6.30
2022-10-16T04:04:39.759Z,6.90
2022-10-16T04:06:46.283Z,6.20
2022-10-16T04:08:52.246Z,5.70
2022-10-16T04:10:58.879Z,7.10
2022-10-16T04:13:05.548Z,6.40
2022-10-16T04:15:12.756Z,6.30
2022-10-16T04:17:19.241Z,6.80
2022-10-16T04:19:25.823Z,6.40
2022-10-16T04:21:32.107Z,6.60
2022-10-16T04:23:39.591Z,6.70
2022-10-16T04:25:46.015Z,6.40
2022-10-16T04:27:52.469Z,5.90
2022-10-16T04:29:58.772Z,6.60
2022-10-16T04:32:06.116Z,6.30
2022-10-16T04:34:12.644Z,6.80
2022-10-16T04:36:19.177Z,6.20
2022-10-16T04:38:25.634Z,6.60
2022-10-16T04:40:34.982Z,6.70
2022-10-16T04:42:41.437Z,7.30
2022-10-16T04:44:47.380Z,7.00
2022-10-16T04:46:54.162Z,6.90
2022-10-16T04:49:00.782Z,5.80
2022-10-16T04:51:08.023Z,6.70
2022-10-16T04:53:14.635Z,7.00
2022-10-16T04:55:21.870Z,6.70
2022-10-16T04:57:29.224Z,6.10
2022-10-16T04:59:36.395Z,7.10
2022-10-16T05:01:42.974Z,6.90
2022-10-16T05:03:49.588Z,6.60
2022-10-16T05:05:56.188Z,6.70
2022-10-16T05:08:02.954Z,6.20
2022-10-16T05:10:09.766Z,6.00
2022-10-16T05:12:16.154Z,6.20
2022-10-16T05:14:22.424Z,6.10
2022-10-16T05:16:29.021Z,6.00
2022-10-16T05:18:35.515Z,5.90
2022-10-16T05:20:42.364Z,6.10
2022-10-16T05:22:49.207Z,5.30
2022-10-16T05:24:56.178Z,7.40
2022-10-16T05:27:03.076Z,6.40
2022-10-16T05:29:09.575Z,5.90
2022-10-16T05:31:16.115Z,6.00
2022-10-16T05:33:26.913Z,6.60
2022-10-16T05:35:34.349Z,6.20
2022-10-16T05:37:41.073Z,5.80
2022-10-16T05:39:47.279Z,6.30
2022-10-16T05:41:53.440Z,6.70
2022-10-16T05:43:59.699Z,6.70
2022-10-16T05:46:08.623Z,6.30
2022-10-16T05:48:14.957Z,7.20
2022-10-16T05:50:21.105Z,6.30
2022-10-16T05:52:27.252Z,6.90
2022-10-16T05:54:33.239Z,6.60
2022-10-16T05:56:39.514Z,6.40
2022-10-16T05:58:46.627Z,6.30
2022-10-16T06:01:01.003Z,7.00
2022-10-16T06:03:08.915Z,5.40
2022-10-16T06:05:15.043Z,6.70
2022-10-16T06:07:21.618Z,6.10
2022-10-16T06:09:28.124Z,5.80
2022-10-16T06:11:36.000Z,5.60
2022-10-16T06:13:44.605Z,7.10
2022-10-16T06:15:51.020Z,6.80
2022-10-16T06:17:57.362Z,6.70
2022-10-16T06:20:03.629Z,6.20
2022-10-16T06:22:10.095Z,7.10
2022-10-16T06:24:16.249Z,6.60
2022-10-16T06:26:24.888Z,6.20
2022-10-16T06:28:31.050Z,6.50
2022-10-16T06:30:37.322Z,5.90
2022-10-16T06:32:43.364Z,6.10
2022-10-16T06:34:49.350Z,6.70
2022-10-16T06:36:55.284Z,6.40
2022-10-16T06:39:01.780Z,5.20
2022-10-16T06:41:09.573Z,6.60
2022-10-16T06:43:15.952Z,6.50
2022-10-16T06:45:22.571Z,5.90
2022-10-16T06:47:29.703Z,6.00
2022-10-16T06:49:36.360Z,5.70
2022-10-16T06:51:43.791Z,6.30
2022-10-16T06:54:07.913Z,6.10
2022-10-16T06:56:15.568Z,6.00
2022-10-16T06:58:23.639Z,6.30
2022-10-16T07:00:30.004Z,5.30
2022-10-16T07:02:37.001Z,7.00
2022-10-16T07:04:43.053Z,6.30
2022-10-16T07:06:49.506Z,6.80
2022-10-16T07:08:56.045Z,5.70
2022-10-16T07:11:11.369Z,5.30
2022-10-16T07:13:17.495Z,6.30
2022-10-16T07:15:23.997Z,6.10
2022-10-16T07:17:30.175Z,6.50
2022-10-16T07:19:37.012Z,5.40
2022-10-16T07:21:44.384Z,6.20
2022-10-16T07:23:54.547Z,6.00
2022-10-16T07:26:00.583Z,6.80
2022-10-16T07:28:07.023Z,6.50
2022-10-16T07:30:13.798Z,6.40
2022-10-16T07:32:19.849Z,5.60
2022-10-16T07:34:26.431Z,6.60
2022-10-16T07:36:32.752Z,6.10
2022-10-16T07:38:40.272Z,5.40
2022-10-16T07:40:47.037Z,6.40
2022-10-16T07:42:54.229Z,5.80
2022-10-16T07:45:00.521Z,5.30
2022-10-16T07:47:06.944Z,5.80
2022-10-16T07:49:13.433Z,6.10
2022-10-16T07:51:22.304Z,6.10
2022-10-16T07:53:29.039Z,6.30
2022-10-16T07:55:35.077Z,6.10
2022-10-16T07:57:41.651Z,5.40
2022-10-16T07:59:49.114Z,6.30
2022-10-16T08:01:55.585Z,6.10
2022-10-16T08:04:01.915Z,6.40
2022-10-16T08:06:08.315Z,6.30
2022-10-16T08:08:16.620Z,6.70
2022-10-16T08:10:26.866Z,6.00
2022-10-16T08:12:33.384Z,5.40
2022-10-16T08:14:40.646Z,5.80
2022-10-16T08:16:47.413Z,6.20
2022-10-16T08:18:53.542Z,5.90
2022-10-16T08:21:02.362Z,6.10
2022-10-16T08:23:09.058Z,5.50
2022-10-16T08:25:15.303Z,5.70
2022-10-16T08:27:21.329Z,6.10
2022-10-16T08:29:27.507Z,5.90
2022-10-16T08:31:33.697Z,6.00
2022-10-16T08:33:41.281Z,6.10
2022-10-16T08:35:56.255Z,6.30
2022-10-16T08:38:02.300Z,5.20
2022-10-16T08:40:16.149Z,5.00
2022-10-16T08:42:45.496Z,5.60
2022-10-16T08:45:23.072Z,5.60
2022-10-16T08:47:46.645Z,5.40
2022-10-16T08:49:58.814Z,5.40
2022-10-16T08:52:05.266Z,5.70
2022-10-16T08:54:48.106Z,5.10
2022-10-16T08:56:58.318Z,6.20
2022-10-16T08:59:06.408Z,6.40
2022-10-16T09:01:18.572Z,6.20
2022-10-16T09:03:27.389Z,5.50
2022-10-16T09:05:57.477Z,6.20
2022-10-16T09:08:13.394Z,6.00
2022-10-16T09:10:44.472Z,6.50
2022-10-16T09:13:24.265Z,6.20
2022-10-16T09:16:03.318Z,6.40
2022-10-16T09:18:22.453Z,6.20
2022-10-16T09:21:00.094Z,5.70
2022-10-16T09:23:33.660Z,6.30
2022-10-16T09:25:43.585Z,6.30
2022-10-16T09:27:55.823Z,6.10
2022-10-16T09:30:02.019Z,6.30
2022-10-16T09:32:18.336Z,6.00
2022-10-16T09:34:32.561Z,5.60
2022-10-16T09:36:45.276Z,6.10
2022-10-16T09:38:52.221Z,5.70
2022-10-16T09:41:03.078Z,6.60
2022-10-16T09:43:22.711Z,6.20
2022-10-16T09:45:29.368Z,6.20
2022-10-16T09:47:42.952Z,5.10
2022-10-16T09:49:59.809Z,6.70
2022-10-16T09:52:14.364Z,5.90
2022-10-16T09:54:23.327Z,6.20
2022-10-16T09:56:35.321Z,5.90
2022-10-16T09:58:45.817Z,5.30
2022-10-16T10:00:54.816Z,5.50
2022-10-16T10:03:00.899Z,6.30
2022-10-16T10:05:23.883Z,6.00
2022-10-16T10:07:36.013Z,6.20
2022-10-16T10:09:46.748Z,5.10
2022-10-16T10:11:54.522Z,6.00
2022-10-16T10:14:21.749Z,6.10
2022-10-16T10:16:27.768Z,6.40
2022-10-16T10:18:34.243Z,5.50
2022-10-16T10:20:41.099Z,5.60
2022-10-16T10:22:48.161Z,5.90
2022-10-16T10:25:22.196Z,5.20
2022-10-16T10:27:43.644Z,6.40
2022-10-16T10:30:02.155Z,6.40
2022-10-16T10:32:31.245Z,6.20
2022-10-16T10:34:57.796Z,5.90
2022-10-16T10:37:37.507Z,6.10
2022-10-16T10:40:07.416Z,6.60
2022-10-16T10:42:40.771Z,6.10
2022-10-16T10:45:09.753Z,6.60
2022-10-16T10:47:18.298Z,5.70
2022-10-16T10:49:49.732Z,5.50
2022-10-16T10:52:22.994Z,6.10
2022-10-16T10:55:00.872Z,5.90
2022-10-16T10:57:32.677Z,5.90
2022-10-16T10:59:50.827Z,4.80
2022-10-16T11:02:07.366Z,5.00
2022-10-16T11:04:26.895Z,6.10
2022-10-16T11:06:54.007Z,6.10
2022-10-16T11:09:23.116Z,5.50
2022-10-16T11:11:39.103Z,6.40
2022-10-16T11:14:14.622Z,5.60
2022-10-16T11:16:52.736Z,5.80
2022-10-16T11:19:13.320Z,5.20
2022-10-16T11:21:27.262Z,5.50
2022-10-16T11:23:48.984Z,5.70
2022-10-16T11:25:58.866Z,5.80
2022-10-16T11:28:23.833Z,5.40
2022-10-16T11:30:36.394Z,6.70
2022-10-16T11:33:13.431Z,6.20
2022-10-16T11:35:30.368Z,5.30
2022-10-16T11:37:42.776Z,5.80
2022-10-16T11:39:49.552Z,6.50
2022-10-16T11:42:25.325Z,5.40
2022-10-16T11:44:43.286Z,7.10
2022-10-16T11:47:28.476Z,6.70
2022-10-16T11:49:33.039Z,6.00
2022-10-16T11:51:44.931Z,5.30
2022-10-16T11:53:59.839Z,5.40
2022-10-16T11:56:07.568Z,6.20
2022-10-16T11:58:37.960Z,5.70
2022-10-16T12:00:54.610Z,5.60
2022-10-16T12:03:16.107Z,5.40
2022-10-16T12:05:28.487Z,6.00
2022-10-16T12:07:42.863Z,5.40
2022-10-16T12:09:49.443Z,6.10
2022-10-16T12:11:56.017Z,5.90
2022-10-16T12:14:14.475Z,5.00
2022-10-16T12:16:25.159Z,6.10
2022-10-16T12:18:31.402Z,5.80
2022-10-16T12:20:39.359Z,5.30
2022-10-16T12:22:56.616Z,5.30
2022-10-16T12:25:02.821Z,5.70
2022-10-16T12:27:28.857Z,6.30
2022-10-16T12:29:44.899Z,6.10
2022-10-16T12:31:58.397Z,5.70
2022-10-16T12:34:06.817Z,5.90
2022-10-16T12:36:39.211Z,5.40
2022-10-16T12:38:51.665Z,6.60
2022-10-16T12:41:27.326Z,5.10
2022-10-16T12:43:45.346Z,5.60
2022-10-16T12:46:05.643Z,5.60
2022-10-16T12:48:29.289Z,5.90
2022-10-16T12:50:43.502Z,5.20
2022-10-16T12:52:50.659Z,5.20
2022-10-16T12:55:03.480Z,5.20
2022-10-16T12:57:15.761Z,5.20
2022-10-16T12:59:47.123Z,5.50
2022-10-16T13:02:19.421Z,6.40
2022-10-16T13:04:38.605Z,5.10
2022-10-16T13:07:06.491Z,6.10
2022-10-16T13:09:32.322Z,5.30
2022-10-16T13:11:57.603Z,5.40
2022-10-16T13:14:22.611Z,5.30
2022-10-16T13:16:47.885Z,5.60
2022-10-16T13:19:12.739Z,6.20
2022-10-16T13:21:45.045Z,5.30
2022-10-16T13:24:19.957Z,5.40
2022-10-16T13:26:47.304Z,5.40
2022-10-16T13:28:53.742Z,5.50
2022-10-16T13:31:01.857Z,5.70
2022-10-16T13:33:23.545Z,5.60
2022-10-16T13:35:35.909Z,5.40
2022-10-16T13:37:42.437Z,4.70
2022-10-16T13:39:48.954Z,5.10
2022-10-16T13:42:09.214Z,6.20
2022-10-16T13:44:22.960Z,5.30
2022-10-16T13:46:29.195Z,5.50
2022-10-16T13:48:36.462Z,6.20
2022-10-16T13:50:42.728Z,5.40
2022-10-16T13:52:48.792Z,6.00
2022-10-16T13:54:59.345Z,4.90
2022-10-16T13:57:26.239Z,6.70
2022-10-16T13:59:37.945Z,6.10
2022-10-16T14:01:46.144Z,5.70
2022-10-16T14:03:53.635Z,5.60
2022-10-16T14:06:03.728Z,5.20
2022-10-16T14:08:14.873Z,5.30
2022-10-16T14:10:33.484Z,6.00
2022-10-16T14:12:39.727Z,5.10
2022-10-16T14:14:54.203Z,4.70
2022-10-16T14:17:00.433Z,5.50
2022-10-16T14:19:12.982Z,5.60
2022-10-16T14:21:19.495Z,5.90
2022-10-16T14:23:34.841Z,5.20
2022-10-16T14:25:41.726Z,4.90
2022-10-16T14:27:48.383Z,5.10
2022-10-16T14:30:24.513Z,5.40
2022-10-16T14:32:30.710Z,5.60
2022-10-16T14:34:39.392Z,4.80
2022-10-16T14:36:45.484Z,5.10
2022-10-16T14:39:05.892Z,5.10
2022-10-16T14:41:12.511Z,5.40
2022-10-16T14:43:25.015Z,5.50
2022-10-16T14:45:34.704Z,5.10
2022-10-16T14:47:52.263Z,5.10
2022-10-16T14:50:00.785Z,4.90
2022-10-16T14:52:13.000Z,5.20
2022-10-16T14:54:20.435Z,4.30
2022-10-16T14:56:36.874Z,5.60
2022-10-16T14:58:43.441Z,5.20
2022-10-16T15:00:49.829Z,5.20
2022-10-16T15:02:56.196Z,5.30
2022-10-16T15:05:28.128Z,4.90
2022-10-16T15:07:34.280Z,5.10
2022-10-16T15:09:42.859Z,4.60
2022-10-16T15:11:51.093Z,5.00
2022-10-16T15:13:57.430Z,4.90
2022-10-16T15:16:03.665Z,5.10
2022-10-16T15:18:09.951Z,5.60
2022-10-16T15:20:16.519Z,5.60
2022-10-16T15:22:25.342Z,4.30
2022-10-16T15:24:31.806Z,5.30
2022-10-16T15:26:38.162Z,5.00
2022-10-16T15:28:44.472Z,4.90
2022-10-16T15:30:53.753Z,5.50
2022-10-16T15:32:59.950Z,5.60
2022-10-16T15:35:07.038Z,4.70
2022-10-16T15:37:15.717Z,5.30
2022-10-16T15:39:23.041Z,5.00
2022-10-16T15:41:29.511Z,5.30
2022-10-16T15:43:36.010Z,4.20
2022-10-16T15:45:42.457Z,5.40
2022-10-16T15:47:49.215Z,5.10
2022-10-16T15:49:55.713Z,4.60
2022-10-16T15:52:02.423Z,4.40
2022-10-16T15:54:08.890Z,5.20
2022-10-16T15:56:16.671Z,5.40
2022-10-16T15:58:23.625Z,6.00
2022-10-16T16:00:30.315Z,5.00
2022-10-16T16:02:36.707Z,5.20
2022-10-16T16:04:44.507Z,5.50
2022-10-16T16:06:51.409Z,4.70
2022-10-16T16:08:58.217Z,4.70
2022-10-16T16:11:14.413Z,4.70
2022-10-16T16:13:20.917Z,4.70
2022-10-16T16:15:27.587Z,5.30
2022-10-16T16:17:34.591Z,4.50
2022-10-16T16:19:40.820Z,5.20
2022-10-16T16:21:46.972Z,5.60
2022-10-16T16:23:53.140Z,5.60
2022-10-16T16:26:16.635Z,5.20
2022-10-16T16:28:23.060Z,4.80
2022-10-16T16:30:29.606Z,5.30
2022-10-16T16:32:37.239Z,5.20
2022-10-16T16:34:43.437Z,4.90
2022-10-16T16:36:49.370Z,4.60
2022-10-16T16:38:55.467Z,4.80
2022-10-16T16:41:01.645Z,5.00
2022-10-16T16:43:07.738Z,5.40
2022-10-16T16:45:14.316Z,4.50
2022-10-16T16:47:20.555Z,5.10
2022-10-16T16:49:26.934Z,4.50
2022-10-16T16:51:35.777Z,5.20
2022-10-16T16:53:47.005Z,5.20
2022-10-16T16:55:53.035Z,5.00
2022-10-16T16:57:59.183Z,4.90
2022-10-16T17:00:06.747Z,4.70
2022-10-16T17:02:13.686Z,5.30
2022-10-16T17:04:21.121Z,4.90
2022-10-16T17:06:29.757Z,4.70
2022-10-16T17:08:37.567Z,4.30
2022-10-16T17:10:47.095Z,4.90
2022-10-16T17:15:04.561Z,4.50
2022-10-16T17:17:11.088Z,4.80
2022-10-16T17:19:19.819Z,4.80
2022-10-16T17:21:27.952Z,4.80
2022-10-16T17:23:35.552Z,4.90
2022-10-16T17:25:42.629Z,4.80
2022-10-16T17:27:49.020Z,5.00
2022-10-16T17:29:55.980Z,4.70
2022-10-16T17:32:02.624Z,4.30
2022-10-16T17:34:11.491Z,4.40
2022-10-16T17:36:18.100Z,4.60
2022-10-16T17:38:24.906Z,4.60
2022-10-16T17:40:31.135Z,4.80
2022-10-16T17:42:37.566Z,5.00
2022-10-16T17:44:43.937Z,5.30
2022-10-16T17:46:53.283Z,4.30
2022-10-16T17:48:59.742Z,4.70
2022-10-16T17:51:12.250Z,4.20
2022-10-16T17:53:18.453Z,4.80
2022-10-16T17:55:27.028Z,4.20
2022-10-16T17:57:33.406Z,4.50
2022-10-16T17:59:39.463Z,4.50
2022-10-16T18:01:47.203Z,4.30
2022-10-16T18:03:55.873Z,5.00
2022-10-16T18:06:03.233Z,4.90
2022-10-16T18:08:09.563Z,4.70
2022-10-16T18:10:18.835Z,3.80
2022-10-16T18:14:34.588Z,4.10
2022-10-16T18:16:40.680Z,4.50
2022-10-16T18:18:47.037Z,4.50
2022-10-16T18:21:03.519Z,4.30
2022-10-16T18:23:09.731Z,4.00
2022-10-16T18:25:16.056Z,3.90
2022-10-16T18:27:22.114Z,4.80
2022-10-16T18:29:29.152Z,4.60
2022-10-16T18:31:37.886Z,4.50
2022-10-16T18:33:51.701Z,5.10
2022-10-16T18:35:58.209Z,4.20
2022-10-16T18:38:05.426Z,4.60
2022-10-16T18:40:11.990Z,4.50
2022-10-16T18:42:19.272Z,4.30
2022-10-16T18:44:25.435Z,5.10
2022-10-16T18:46:32.284Z,4.20
2022-10-16T18:48:39.030Z,4.20
2022-10-16T18:50:45.328Z,5.00
2022-10-16T18:52:51.680Z,4.20
2022-10-16T18:54:59.282Z,4.20
2022-10-16T18:57:05.754Z,4.60
2022-10-16T18:59:12.335Z,3.20
2022-10-16T19:01:21.927Z,4.40
2022-10-16T19:03:28.620Z,4.40
2022-10-16T19:05:35.682Z,4.30
2022-10-16T19:07:42.846Z,4.40
2022-10-16T19:09:49.505Z,4.00
2022-10-16T19:11:55.794Z,4.00
2022-10-16T19:14:01.971Z,4.40
2022-10-16T19:16:21.984Z,4.80
2022-10-16T19:18:29.979Z,4.80
2022-10-16T19:20:36.053Z,3.90
2022-10-16T19:22:53.867Z,4.40
2022-10-16T19:25:00.654Z,3.70
2022-10-16T19:27:08.003Z,3.90
2022-10-16T19:29:14.790Z,4.50
2022-10-16T19:31:26.450Z,3.30
2022-10-16T19:33:33.708Z,3.70
2022-10-16T19:35:39.907Z,3.80
2022-10-16T19:37:46.638Z,3.70
2022-10-16T19:39:53.057Z,4.00
2022-10-16T19:41:59.894Z,4.40
2022-10-16T19:44:08.817Z,3.70
2022-10-16T19:46:17.819Z,3.60
2022-10-16T19:50:31.724Z,3.80
2022-10-16T19:52:38.526Z,4.00
2022-10-16T19:54:45.321Z,3.90
2022-10-16T19:56:52.157Z,4.00
2022-10-16T19:58:59.916Z,4.00
2022-10-16T20:01:06.575Z,3.50
2022-10-16T20:03:12.717Z,3.90
2022-10-16T20:05:18.713Z,4.20
2022-10-16T20:07:25.498Z,4.30
2022-10-16T20:09:32.273Z,3.90
2022-10-16T20:11:39.503Z,3.80
2022-10-16T20:13:46.189Z,3.60
2022-10-16T20:15:52.914Z,4.40
2022-10-16T20:17:59.871Z,3.10
2022-10-16T20:20:06.143Z,3.70
2022-10-16T20:22:12.567Z,4.00
2022-10-16T20:24:19.811Z,3.80
2022-10-16T20:26:30.114Z,3.70
2022-10-16T20:28:36.225Z,3.90
2022-10-16T20:30:44.667Z,4.10
2022-10-16T20:32:50.927Z,4.20
2022-10-16T20:34:57.558Z,3.70
2022-10-16T20:37:04.158Z,3.00
2022-10-16T20:39:11.146Z,3.80
2022-10-16T20:41:18.937Z,3.70
2022-10-16T20:43:25.610Z,4.00
2022-10-16T20:45:32.785Z,4.10
2022-10-16T20:47:39.383Z,3.80
2022-10-16T20:49:45.732Z,3.90
2022-10-16T20:51:52.021Z,4.60
2022-10-16T20:54:03.425Z,3.70
2022-10-16T20:56:13.856Z,3.70
2022-10-16T20:58:20.316Z,3.30
2022-10-16T21:00:26.786Z,3.70
2022-10-16T21:02:33.874Z,3.30
2022-10-16T21:04:40.394Z,4.00
2022-10-16T21:06:47.290Z,3.60
2022-10-16T21:08:54.371Z,3.60
2022-10-16T21:11:00.782Z,3.60
2022-10-16T21:13:07.175Z,3.40
2022-10-16T21:15:15.425Z,3.40
2022-10-16T21:17:22.174Z,3.10
2022-10-16T21:19:30.950Z,4.20
2022-10-16T21:21:39.955Z,3.60
2022-10-16T21:23:49.160Z,3.20
2022-10-16T21:25:55.685Z,3.30
2022-10-16T21:28:02.206Z,3.50
2022-10-16T21:30:10.946Z,3.30
2022-10-16T21:32:17.631Z,3.50
2022-10-16T21:34:24.012Z,3.80
2022-10-16T21:36:33.603Z,3.40
2022-10-16T21:38:39.959Z,3.40
2022-10-16T21:40:46.968Z,3.30
2022-10-16T21:42:53.581Z,3.40
2022-10-16T21:44:59.832Z,3.30
2022-10-16T21:47:06.657Z,3.50
2022-10-16T21:49:18.932Z,3.20
2022-10-16T21:51:30.192Z,3.10
2022-10-16T21:55:42.219Z,3.80
2022-10-16T21:57:48.714Z,3.30
2022-10-16T21:59:54.761Z,3.50
2022-10-16T22:02:03.530Z,4.50
2022-10-16T22:04:12.512Z,2.90
2022-10-16T22:08:34.080Z,2.80
2022-10-16T22:10:40.195Z,3.90
2022-10-16T22:12:46.204Z,3.40
2022-10-16T22:14:52.417Z,3.70
2022-10-16T22:16:58.770Z,3.20
2022-10-16T22:19:08.315Z,3.60
2022-10-16T22:21:14.919Z,4.20
2022-10-16T22:23:21.611Z,3.80
2022-10-16T22:25:28.212Z,3.50
2022-10-16T22:27:34.665Z,3.70
2022-10-16T22:29:40.804Z,3.70
2022-10-16T22:31:47.280Z,3.40
2022-10-16T22:33:58.275Z,3.60
2022-10-16T22:36:07.380Z,3.40
2022-10-16T22:38:13.767Z,3.80
2022-10-16T22:40:20.126Z,3.40
2022-10-16T22:42:26.405Z,3.10
2022-10-16T22:44:32.923Z,3.00
2022-10-16T22:46:39.782Z,4.10
2022-10-16T22:48:46.604Z,3.80
2022-10-16T22:50:53.611Z,2.80
2022-10-16T22:52:59.893Z,3.70
2022-10-16T22:55:06.219Z,4.00
2022-10-16T22:57:12.320Z,2.90
2022-10-16T22:59:18.553Z,3.70
2022-10-16T23:01:35.433Z,3.30
2022-10-16T23:03:41.519Z,3.80
2022-10-16T23:05:47.541Z,3.50
2022-10-16T23:07:53.761Z,4.10
2022-10-16T23:12:06.776Z,3.30
2022-10-16T23:14:12.821Z,3.50
2022-10-16T23:16:21.281Z,3.50
2022-10-16T23:18:27.341Z,3.50
2022-10-16T23:20:33.328Z,3.20
2022-10-16T23:22:40.423Z,3.30
2022-10-16T23:24:46.685Z,3.30
2022-10-16T23:26:53.090Z,3.60
2022-10-16T23:29:00.492Z,3.40
2022-10-16T23:31:08.350Z,4.30
2022-10-16T23:33:15.016Z,3.40
2022-10-16T23:35:22.602Z,4.00
2022-10-16T23:37:29.265Z,3.60
2022-10-16T23:39:35.490Z,3.60
2022-10-16T23:41:41.885Z,3.60
2022-10-16T23:43:48.390Z,3.30
2022-10-16T23:45:54.927Z,3.90
2022-10-16T23:48:01.603Z,3.90
2022-10-16T23:50:09.013Z,3.50
2022-10-16T23:52:15.586Z,3.30
2022-10-16T23:54:22.686Z,3.50
2022-10-16T23:56:29.322Z,3.40
2022-10-16T23:58:37.013Z,3.80
